createdAt,value
2022-09-01T00:01:39.192Z,17.00
2022-09-01T00:04:27.912Z,16.80
2022-09-01T00:07:16.362Z,16.70
2022-09-01T00:10:07.193Z,16.60
2022-09-01T00:12:53.909Z,16.60
2022-09-01T00:15:40.866Z,16.70
2022-09-01T00:18:27.528Z,16.70
2022-09-01T00:21:15.126Z,16.70
2022-09-01T00:24:03.864Z,16.70
2022-09-01T00:26:50.773Z,16.70
2022-09-01T00:29:37.893Z,16.70
2022-09-01T00:32:30.603Z,16.70
2022-09-01T00:35:19.578Z,16.80
2022-09-01T00:38:06.472Z,16.80
2022-09-01T00:40:55.715Z,16.80
2022-09-01T00:43:45.211Z,16.90
2022-09-01T00:46:36.965Z,16.90
2022-09-01T00:49:39.844Z,16.90
2022-09-01T00:52:32.494Z,16.80
2022-09-01T00:55:26.339Z,16.60
2022-09-01T00:58:18.396Z,16.40
2022-09-01T01:01:07.379Z,16.40
2022-09-01T01:03:53.995Z,16.30
2022-09-01T01:06:40.905Z,16.40
2022-09-01T01:09:30.418Z,16.30
2022-09-01T01:12:17.538Z,16.50
2022-09-01T01:15:07.063Z,16.40
2022-09-01T01:17:53.797Z,16.50
2022-09-01T01:20:58.374Z,16.50
2022-09-01T01:23:49.150Z,16.40
2022-09-01T01:26:37.205Z,16.40
2022-09-01T01:29:25.787Z,16.50
2022-09-01T01:32:13.583Z,16.50
2022-09-01T01:35:05.864Z,16.50
2022-09-01T01:37:54.376Z,16.60
2022-09-01T01:40:41.841Z,16.50
2022-09-01T01:43:30.729Z,16.40
2022-09-01T01:46:19.199Z,16.30
2022-09-01T01:49:07.361Z,16.10
2022-09-01T01:51:56.433Z,16.20
2022-09-01T01:54:47.542Z,16.30
2022-09-01T01:57:35.435Z,16.20
2022-09-01T02:00:30.443Z,16.10
2022-09-01T02:03:19.829Z,16.10
2022-09-01T02:06:09.617Z,16.20
2022-09-01T02:08:59.021Z,16.30
2022-09-01T02:11:45.959Z,16.30
2022-09-01T02:14:33.703Z,16.20
2022-09-01T02:17:22.556Z,16.10
2022-09-01T02:20:10.898Z,16.10
2022-09-01T02:22:57.920Z,16.10
2022-09-01T02:26:14.061Z,16.30
2022-09-01T02:28:56.038Z,16.20
2022-09-01T02:31:51.864Z,16.00
2022-09-01T02:34:40.035Z,16.00
2022-09-01T02:37:26.683Z,15.80
2022-09-01T02:40:15.891Z,15.70
2022-09-01T02:43:02.781Z,15.50
2022-09-01T02:45:55.477Z,15.50
2022-09-01T02:48:51.394Z,15.60
2022-09-01T02:51:39.784Z,15.50
2022-09-01T02:54:27.782Z,15.40
2022-09-01T02:57:14.625Z,15.30
2022-09-01T03:00:01.644Z,15.30
2022-09-01T03:02:52.849Z,15.40
2022-09-01T03:05:40.977Z,15.40
2022-09-01T03:08:34.319Z,15.50
2022-09-01T03:11:21.907Z,15.40
2022-09-01T03:14:09.595Z,15.30
2022-09-01T03:16:57.644Z,15.30
2022-09-01T03:19:45.229Z,15.20
2022-09-01T03:22:33.714Z,15.10
2022-09-01T03:25:25.005Z,15.00
2022-09-01T03:28:16.170Z,15.10
2022-09-01T03:31:02.669Z,15.10
2022-09-01T03:33:50.971Z,15.10
2022-09-01T03:36:50.072Z,15.10
2022-09-01T03:39:42.473Z,15.10
2022-09-01T03:42:31.561Z,15.20
2022-09-01T03:45:20.370Z,15.30
2022-09-01T03:48:08.991Z,15.30
2022-09-01T03:50:58.194Z,15.20
2022-09-01T03:53:45.254Z,15.20
2022-09-01T03:56:31.917Z,15.10
2022-09-01T03:59:20.053Z,15.10
2022-09-01T04:02:08.044Z,15.00
2022-09-01T04:04:54.912Z,15.10
2022-09-01T04:07:41.840Z,15.30
2022-09-01T04:10:28.933Z,15.30
2022-09-01T04:13:15.629Z,15.40
2022-09-01T04:16:10.456Z,15.20
2022-09-01T04:18:56.249Z,15.30
2022-09-01T04:21:44.157Z,15.40
2022-09-01T04:24:33.753Z,15.50
2022-09-01T04:27:26.979Z,15.50
2022-09-01T04:30:14.109Z,15.60
2022-09-01T04:33:06.942Z,15.60
2022-09-01T04:35:56.458Z,15.60
2022-09-01T04:38:43.117Z,15.60
2022-09-01T04:41:32.221Z,15.60
2022-09-01T04:44:22.405Z,15.60
2022-09-01T04:47:12.188Z,15.50
2022-09-01T04:50:02.022Z,15.50
2022-09-01T04:52:48.956Z,15.50
2022-09-01T04:55:49.886Z,15.50
2022-09-01T04:58:39.140Z,15.40
2022-09-01T05:01:27.716Z,15.40
2022-09-01T05:04:16.719Z,15.50
2022-09-01T05:07:08.341Z,15.50
2022-09-01T05:10:01.286Z,15.60
2022-09-01T05:13:18.713Z,15.80
2022-09-01T05:16:12.799Z,15.90
2022-09-01T05:19:01.500Z,16.10
2022-09-01T05:21:54.679Z,16.30
2022-09-01T05:24:42.639Z,16.60
2022-09-01T05:27:30.986Z,16.80
2022-09-01T05:30:18.692Z,16.90
2022-09-01T05:33:10.154Z,17.00
2022-09-01T05:36:01.191Z,17.10
2022-09-01T05:38:50.990Z,17.10
2022-09-01T05:41:40.841Z,17.20
2022-09-01T05:44:27.825Z,17.40
2022-09-01T05:47:20.794Z,17.70
2022-09-01T05:50:14.360Z,17.90
2022-09-01T05:53:02.579Z,18.10
2022-09-01T05:55:52.680Z,18.40
2022-09-01T06:01:53.220Z,19.10
2022-09-01T06:04:44.437Z,19.40
2022-09-01T06:07:42.715Z,19.60
2022-09-01T06:10:32.125Z,20.00
2022-09-01T06:13:21.828Z,19.70
2022-09-01T06:16:16.858Z,19.80
2022-09-01T06:19:05.018Z,19.60
2022-09-01T06:21:53.790Z,19.90
2022-09-01T06:24:43.938Z,20.00
2022-09-01T06:27:33.254Z,20.60
2022-09-01T06:30:24.396Z,21.20
2022-09-01T06:33:27.302Z,21.10
2022-09-01T06:36:14.530Z,21.30
2022-09-01T06:39:03.137Z,20.80
2022-09-01T06:41:52.935Z,20.40
2022-09-01T06:44:44.166Z,20.70
2022-09-01T06:47:31.278Z,20.40
2022-09-01T06:56:44.780Z,21.90
2022-09-01T06:59:38.821Z,22.00
2022-09-01T07:09:47.167Z,21.90
2022-09-01T07:19:10.413Z,21.40
2022-09-01T07:22:35.795Z,22.20
2022-09-01T07:25:11.761Z,23.00
2022-09-01T07:28:09.232Z,22.70
2022-09-01T07:30:56.794Z,22.60
2022-09-01T07:33:54.170Z,22.80
2022-09-01T07:39:51.781Z,22.80
2022-09-01T07:41:44.194Z,22.00
2022-09-01T07:42:55.914Z,22.10
2022-09-01T07:42:58.017Z,21.60
2022-09-01T07:49:37.731Z,23.90
2022-09-01T07:52:22.602Z,23.90
2022-09-01T07:55:17.873Z,23.20
2022-09-01T07:58:04.788Z,23.70
2022-09-01T08:00:53.331Z,24.70
2022-09-01T08:03:41.718Z,24.30
2022-09-01T08:06:37.950Z,24.10
2022-09-01T08:09:37.793Z,24.10
2022-09-01T08:12:29.410Z,24.30
2022-09-01T08:18:24.742Z,24.60
2022-09-01T08:21:13.734Z,24.90
2022-09-01T08:24:19.152Z,25.40
2022-09-01T08:27:05.870Z,24.50
2022-09-01T08:29:53.885Z,24.50
2022-09-01T08:32:42.186Z,24.60
2022-09-01T08:35:29.861Z,24.60
2022-09-01T08:38:18.032Z,24.70
2022-09-01T08:41:14.689Z,24.80
2022-09-01T08:44:08.125Z,23.90
2022-09-01T08:47:02.173Z,22.70
2022-09-01T08:49:51.365Z,22.60
2022-09-01T08:52:53.008Z,22.40
2022-09-01T08:55:45.249Z,21.50
2022-09-01T08:58:33.785Z,21.20
2022-09-01T09:01:31.754Z,21.10
2022-09-01T09:04:41.039Z,21.20
2022-09-01T09:07:42.312Z,21.20
2022-09-01T09:10:36.230Z,21.50
2022-09-01T09:13:30.451Z,21.80
2022-09-01T09:16:20.927Z,22.60
2022-09-01T09:19:12.263Z,23.20
2022-09-01T09:22:02.917Z,23.00
2022-09-01T09:24:52.847Z,22.50
2022-09-01T09:27:42.381Z,22.30
2022-09-01T09:30:31.399Z,22.00
2022-09-01T09:33:51.157Z,22.10
2022-09-01T09:36:38.560Z,22.60
2022-09-01T09:39:26.882Z,23.50
2022-09-01T09:42:16.500Z,24.50
2022-09-01T09:45:04.353Z,25.10
2022-09-01T09:47:51.680Z,24.80
2022-09-01T09:50:40.811Z,24.20
2022-09-01T09:53:30.461Z,23.60
2022-09-01T09:56:21.026Z,23.70
2022-09-01T09:59:39.468Z,23.80
2022-09-01T10:02:32.045Z,23.50
2022-09-01T10:05:34.866Z,23.40
2022-09-01T10:08:44.834Z,23.00
2022-09-01T10:11:42.183Z,22.80
2022-09-01T10:14:52.394Z,23.20
2022-09-01T10:17:43.561Z,23.80
2022-09-01T10:20:30.800Z,23.60
2022-09-01T10:23:18.401Z,23.60
2022-09-01T10:26:10.582Z,24.70
2022-09-01T10:29:06.568Z,24.60
2022-09-01T10:32:14.761Z,24.30
2022-09-01T10:35:04.581Z,24.30
2022-09-01T10:37:53.097Z,24.30
2022-09-01T10:40:49.185Z,24.30
2022-09-01T10:43:40.966Z,24.60
2022-09-01T10:46:51.175Z,24.90
2022-09-01T10:50:07.416Z,24.80
2022-09-01T10:53:04.717Z,25.20
2022-09-01T10:56:18.223Z,25.20
2022-09-01T11:02:28.059Z,24.50
2022-09-01T11:05:18.791Z,24.20
2022-09-01T11:08:24.053Z,24.20
2022-09-01T11:11:24.252Z,24.00
2022-09-01T11:14:19.588Z,23.90
2022-09-01T11:17:20.949Z,23.60
2022-09-01T11:20:10.354Z,23.50
2022-09-01T11:23:03.483Z,23.80
2022-09-01T11:29:02.208Z,23.50
2022-09-01T11:31:48.881Z,23.20
2022-09-01T11:34:43.044Z,23.10
2022-09-01T11:37:30.245Z,23.10
2022-09-01T11:40:21.956Z,23.10
2022-09-01T11:43:12.982Z,23.00
2022-09-01T11:46:20.181Z,23.20
2022-09-01T11:49:09.882Z,23.80
2022-09-01T11:51:59.754Z,24.00
2022-09-01T11:54:47.465Z,24.00
2022-09-01T11:57:36.349Z,23.80
2022-09-01T12:00:29.778Z,24.20
2022-09-01T12:03:23.498Z,24.60
2022-09-01T12:06:13.180Z,24.50
2022-09-01T12:09:04.058Z,24.60
2022-09-01T12:11:52.760Z,24.70
2022-09-01T12:15:04.387Z,25.20
2022-09-01T12:17:46.461Z,24.90
2022-09-01T12:20:38.575Z,25.60
2022-09-01T12:23:27.983Z,25.60
2022-09-01T12:26:19.200Z,25.20
2022-09-01T12:29:06.973Z,25.30
2022-09-01T12:31:55.640Z,25.20
2022-09-01T12:34:44.657Z,24.30
2022-09-01T12:37:31.655Z,24.30
2022-09-01T12:40:31.606Z,24.20
2022-09-01T12:43:35.216Z,24.10
2022-09-01T12:46:41.159Z,24.30
2022-09-01T12:49:36.842Z,24.70
2022-09-01T12:52:32.593Z,24.80
2022-09-01T12:58:33.084Z,25.10
2022-09-01T13:01:29.628Z,24.70
2022-09-01T13:04:29.741Z,24.50
2022-09-01T13:07:17.006Z,23.80
2022-09-01T13:10:07.191Z,23.50
2022-09-01T13:12:54.189Z,23.40
2022-09-01T13:15:48.012Z,23.30
2022-09-01T13:19:10.427Z,23.20
2022-09-01T13:24:33.323Z,23.70
2022-09-01T13:27:22.097Z,23.90
2022-09-01T13:30:09.655Z,24.00
2022-09-01T13:36:42.917Z,23.70
2022-09-01T13:39:12.457Z,24.00
2022-09-01T13:41:58.830Z,24.10
2022-09-01T13:44:48.279Z,24.40
2022-09-01T13:48:15.240Z,24.60
2022-09-01T13:53:56.029Z,24.30
2022-09-01T13:56:43.834Z,24.40
2022-09-01T13:59:32.926Z,24.40
2022-09-01T14:02:20.037Z,24.30
2022-09-01T14:05:08.100Z,24.30
2022-09-01T14:07:56.906Z,24.10
2022-09-01T14:10:48.887Z,24.20
2022-09-01T14:13:36.823Z,24.40
2022-09-01T14:16:23.365Z,24.50
2022-09-01T14:19:13.077Z,24.70
2022-09-01T14:21:59.879Z,24.80
2022-09-01T14:24:47.845Z,24.90
2022-09-01T14:27:34.394Z,25.00
2022-09-01T14:30:25.687Z,24.80
2022-09-01T14:33:15.799Z,24.60
2022-09-01T14:36:03.211Z,24.40
2022-09-01T14:38:50.649Z,24.20
2022-09-01T14:41:38.885Z,24.00
2022-09-01T14:44:25.257Z,23.90
2022-09-01T14:47:12.525Z,23.80
2022-09-01T14:53:00.698Z,23.70
2022-09-01T14:55:51.476Z,23.70
2022-09-01T14:58:45.170Z,23.70
2022-09-01T15:01:34.594Z,23.60
2022-09-01T15:04:21.994Z,23.70
2022-09-01T15:07:08.781Z,23.70
2022-09-01T15:09:55.574Z,23.70
2022-09-01T15:12:42.270Z,23.50
2022-09-01T15:15:30.958Z,23.40
2022-09-01T15:18:17.929Z,23.30
2022-09-01T15:21:05.022Z,23.20
2022-09-01T15:23:51.943Z,23.30
2022-09-01T15:26:40.728Z,23.30
2022-09-01T15:29:27.593Z,23.40
2022-09-01T15:32:20.968Z,23.40
2022-09-01T15:35:17.021Z,23.50
2022-09-01T15:38:04.078Z,23.50
2022-09-01T15:40:58.021Z,23.60
2022-09-01T15:43:45.406Z,23.60
2022-09-01T15:46:33.609Z,23.60
2022-09-01T15:49:21.726Z,23.60
2022-09-01T15:52:08.356Z,23.60
2022-09-01T15:54:55.070Z,23.70
2022-09-01T15:57:41.808Z,23.70
2022-09-01T16:00:30.746Z,23.60
2022-09-01T16:03:17.489Z,23.60
2022-09-01T16:06:06.481Z,23.60
2022-09-01T16:08:54.297Z,23.60
2022-09-01T16:11:41.406Z,23.70
2022-09-01T16:14:28.426Z,23.70
2022-09-01T16:17:22.544Z,23.80
2022-09-01T16:20:11.886Z,23.70
2022-09-01T16:23:11.407Z,23.70
2022-09-01T16:26:00.775Z,23.60
2022-09-01T16:28:50.421Z,23.50
2022-09-01T16:31:37.086Z,23.50
2022-09-01T16:34:27.746Z,23.50
2022-09-01T16:37:30.125Z,23.50
2022-09-01T16:40:33.362Z,23.40
2022-09-01T16:43:28.442Z,23.40
2022-09-01T16:46:23.877Z,23.50
2022-09-01T16:49:21.743Z,23.50
2022-09-01T16:52:14.247Z,23.50
2022-09-01T16:55:19.861Z,23.50
2022-09-01T16:58:19.081Z,23.50
2022-09-01T17:01:17.528Z,23.30
2022-09-01T17:04:16.610Z,23.30
2022-09-01T17:07:08.951Z,23.20
2022-09-01T17:10:03.545Z,23.20
2022-09-01T17:12:55.870Z,23.20
2022-09-01T17:15:48.022Z,23.10
2022-09-01T17:18:39.437Z,23.10
2022-09-01T17:21:32.251Z,23.00
2022-09-01T17:24:30.233Z,22.90
2022-09-01T17:27:21.797Z,22.80
2022-09-01T17:30:09.297Z,22.80
2022-09-01T17:33:17.320Z,22.70
2022-09-01T17:36:18.617Z,22.60
2022-09-01T17:39:14.482Z,22.50
2022-09-01T17:42:07.299Z,22.50
2022-09-01T17:44:57.089Z,22.40
2022-09-01T17:47:53.094Z,22.40
2022-09-01T17:50:58.055Z,22.30
2022-09-01T17:53:59.870Z,22.20
2022-09-01T17:56:54.390Z,22.20
2022-09-01T17:59:49.909Z,22.10
2022-09-01T18:02:51.737Z,22.10
2022-09-01T18:05:43.451Z,22.00
2022-09-01T18:08:40.194Z,21.70
2022-09-01T18:11:36.754Z,21.60
2022-09-01T18:14:28.315Z,21.50
2022-09-01T18:17:23.190Z,21.30
2022-09-01T18:20:12.577Z,21.20
2022-09-01T18:23:05.601Z,21.20
2022-09-01T18:25:57.592Z,21.00
2022-09-01T18:28:44.649Z,20.90
2022-09-01T18:32:00.425Z,20.80
2022-09-01T18:34:59.936Z,20.70
2022-09-01T18:38:02.829Z,20.60
2022-09-01T18:41:10.254Z,20.50
2022-09-01T18:44:05.258Z,20.40
2022-09-01T18:46:59.305Z,20.30
2022-09-01T18:49:51.715Z,20.30
2022-09-01T18:53:00.889Z,20.10
2022-09-01T18:55:56.080Z,20.00
2022-09-01T18:58:54.361Z,19.90
2022-09-01T19:01:50.238Z,19.80
2022-09-01T19:04:41.078Z,19.80
2022-09-01T19:07:35.664Z,19.80
2022-09-01T19:10:27.937Z,19.90
2022-09-01T19:13:39.204Z,19.80
2022-09-01T19:16:35.461Z,19.60
2022-09-01T19:19:34.648Z,19.50
2022-09-01T19:22:36.563Z,19.40
2022-09-01T19:25:36.682Z,19.40
2022-09-01T19:28:32.895Z,19.40
2022-09-01T19:31:24.839Z,19.30
2022-09-01T19:34:15.288Z,19.20
2022-09-01T19:37:04.906Z,19.10
2022-09-01T19:39:54.400Z,19.00
2022-09-01T19:42:46.509Z,19.00
2022-09-01T19:45:44.884Z,19.00
2022-09-01T19:48:36.122Z,19.00
2022-09-01T19:51:29.238Z,19.00
2022-09-01T19:54:24.214Z,18.90
2022-09-01T19:57:18.895Z,18.80
2022-09-01T20:00:12.069Z,18.90
2022-09-01T20:03:08.444Z,18.90
2022-09-01T20:05:58.275Z,18.90
2022-09-01T20:08:55.765Z,18.80
2022-09-01T20:11:49.145Z,18.70
2022-09-01T20:14:49.307Z,18.70
2022-09-01T20:17:41.743Z,18.60
2022-09-01T20:20:35.521Z,18.60
2022-09-01T20:23:28.551Z,18.50
2022-09-01T20:26:22.219Z,18.60
2022-09-01T20:29:15.344Z,18.60
2022-09-01T20:32:03.947Z,18.60
2022-09-01T20:34:55.503Z,18.50
2022-09-01T20:37:47.342Z,18.50
2022-09-01T20:40:40.128Z,18.50
2022-09-01T20:43:31.901Z,18.50
2022-09-01T20:46:20.293Z,18.40
2022-09-01T20:49:06.941Z,18.20
2022-09-01T20:51:58.524Z,18.20
2022-09-01T20:54:55.896Z,18.20
2022-09-01T20:57:51.480Z,18.20
2022-09-01T21:00:46.071Z,18.30
2022-09-01T21:03:39.974Z,18.20
2022-09-01T21:06:45.993Z,18.20
2022-09-01T21:09:49.789Z,18.30
2022-09-01T21:12:39.763Z,18.20
2022-09-01T21:15:37.714Z,18.10
2022-09-01T21:18:41.594Z,18.10
2022-09-01T21:21:35.050Z,18.00
2022-09-01T21:24:21.918Z,17.90
2022-09-01T21:27:15.913Z,17.90
2022-09-01T21:30:07.879Z,17.80
2022-09-01T21:32:56.649Z,17.70
2022-09-01T21:35:43.498Z,17.60
2022-09-01T21:38:30.626Z,17.50
2022-09-01T21:41:17.295Z,17.50
2022-09-01T21:44:04.742Z,17.50
2022-09-01T21:46:52.881Z,17.60
2022-09-01T21:49:39.997Z,17.50
2022-09-01T21:52:26.721Z,17.50
2022-09-01T21:55:16.625Z,17.50
2022-09-01T21:58:05.028Z,17.50
2022-09-01T22:00:51.990Z,17.50
2022-09-01T22:03:40.109Z,17.50
2022-09-01T22:06:26.950Z,17.40
2022-09-01T22:09:20.606Z,17.40
2022-09-01T22:12:08.788Z,17.40
2022-09-01T22:14:55.819Z,17.30
2022-09-01T22:17:42.335Z,17.30
2022-09-01T22:20:31.950Z,17.30
2022-09-01T22:23:20.297Z,17.20
2022-09-01T22:26:09.648Z,17.20
2022-09-01T22:29:01.445Z,17.20
2022-09-01T22:31:48.242Z,17.10
2022-09-01T22:34:35.836Z,17.10
2022-09-01T22:37:24.116Z,17.10
2022-09-01T22:40:12.538Z,17.00
2022-09-01T22:42:59.277Z,17.00
2022-09-01T22:45:46.136Z,16.90
2022-09-01T22:48:32.915Z,17.00
2022-09-01T22:51:20.727Z,17.00
2022-09-01T22:54:11.002Z,17.00
2022-09-01T22:56:58.667Z,17.00
2022-09-01T22:59:46.465Z,17.00
2022-09-01T23:02:33.607Z,16.90
2022-09-01T23:05:22.187Z,16.90
2022-09-01T23:08:09.206Z,16.80
2022-09-01T23:10:57.304Z,16.80
2022-09-01T23:13:44.076Z,16.80
2022-09-01T23:16:31.591Z,16.70
2022-09-01T23:19:18.361Z,16.60
2022-09-01T23:22:04.854Z,16.60
2022-09-01T23:24:51.382Z,16.60
2022-09-01T23:27:41.034Z,16.60
2022-09-01T23:30:27.699Z,16.60
2022-09-01T23:33:15.440Z,16.60
2022-09-01T23:36:02.684Z,16.60
2022-09-01T23:38:49.993Z,16.60
2022-09-01T23:41:38.483Z,16.60
2022-09-01T23:44:26.578Z,16.60
2022-09-01T23:47:13.369Z,16.70
2022-09-01T23:50:00.225Z,16.70
2022-09-01T23:52:46.680Z,16.60
2022-09-01T23:55:33.798Z,16.50
2022-09-01T23:58:22.186Z,16.50
